sensor_id;sensor_type;location;lat;lon;timestamp;temperature;humidity
59975;DHT22;62136;-35.664;-63.766;2023-07-02T00:00:22;19.20;44.00
59975;DHT22;62136;-35.664;-63.766;2023-07-02T00:02:49;19.20;44.00
59975;DHT22;62136;-35.664;-63.766;2023-07-02T00:05:16;19.20;44.10
59975;DHT22;62136;-35.664;-63.766;2023-07-02T00:07:44;19.20;44.10
59975;DHT22;62136;-35.664;-63.766;2023-07-02T00:10:12;19.20;44.10
59975;DHT22;62136;-35.664;-63.766;2023-07-02T00:12:39;19.20;44.10
59975;DHT22;62136;-35.664;-63.766;2023-07-02T00:15:06;19.20;44.00
59975;DHT22;62136;-35.664;-63.766;2023-07-02T00:17:33;19.20;44.50
59975;DHT22;62136;-35.664;-63.766;2023-07-02T00:20:00;19.10;43.80
59975;DHT22;62136;-35.664;-63.766;2023-07-02T00:22:34;19.20;44.00
59975;DHT22;62136;-35.664;-63.766;2023-07-02T00:25:02;19.10;44.00
59975;DHT22;62136;-35.664;-63.766;2023-07-02T00:27:29;19.10;44.00
59975;DHT22;62136;-35.664;-63.766;2023-07-02T00:29:56;19.10;44.00
59975;DHT22;62136;-35.664;-63.766;2023-07-02T00:32:23;19.10;44.00
59975;DHT22;62136;-35.664;-63.766;2023-07-02T00:34:50;19.10;44.00
59975;DHT22;62136;-35.664;-63.766;2023-07-02T00:37:18;19.10;44.00
59975;DHT22;62136;-35.664;-63.766;2023-07-02T00:39:45;19.10;44.10
59975;DHT22;62136;-35.664;-63.766;2023-07-02T00:42:12;19.10;44.00
59975;DHT22;62136;-35.664;-63.766;2023-07-02T00:44:39;19.10;44.00
59975;DHT22;62136;-35.664;-63.766;2023-07-02T00:47:10;19.10;44.10
59975;DHT22;62136;-35.664;-63.766;2023-07-02T00:49:39;19.10;44.10
59975;DHT22;62136;-35.664;-63.766;2023-07-02T00:52:06;19.00;43.80
59975;DHT22;62136;-35.664;-63.766;2023-07-02T00:54:33;19.00;44.10
59975;DHT22;62136;-35.664;-63.766;2023-07-02T00:57:02;19.10;44.20
59975;DHT22;62136;-35.664;-63.766;2023-07-02T00:59:33;19.00;44.10
59975;DHT22;62136;-35.664;-63.766;2023-07-02T01:02:04;19.00;44.30
59975;DHT22;62136;-35.664;-63.766;2023-07-02T01:04:32;19.00;44.10
59975;DHT22;62136;-35.664;-63.766;2023-07-02T01:06:59;19.00;44.00
59975;DHT22;62136;-35.664;-63.766;2023-07-02T01:09:27;19.00;44.10
59975;DHT22;62136;-35.664;-63.766;2023-07-02T01:11:59;19.00;44.10
59975;DHT22;62136;-35.664;-63.766;2023-07-02T01:14:33;19.00;44.20
59975;DHT22;62136;-35.664;-63.766;2023-07-02T01:17:05;19.00;44.20
59975;DHT22;62136;-35.664;-63.766;2023-07-02T01:22:25;19.00;44.20
59975;DHT22;62136;-35.664;-63.766;2023-07-02T01:24:53;18.90;44.20
59975;DHT22;62136;-35.664;-63.766;2023-07-02T01:27:21;18.90;44.30
59975;DHT22;62136;-35.664;-63.766;2023-07-02T01:29:52;18.90;44.30
59975;DHT22;62136;-35.664;-63.766;2023-07-02T01:32:19;18.90;44.30
59975;DHT22;62136;-35.664;-63.766;2023-07-02T01:34:47;18.90;44.30
59975;DHT22;62136;-35.664;-63.766;2023-07-02T01:37:19;18.90;44.30
59975;DHT22;62136;-35.664;-63.766;2023-07-02T01:39:46;18.90;44.30
59975;DHT22;62136;-35.664;-63.766;2023-07-02T01:42:15;18.90;44.40
59975;DHT22;62136;-35.664;-63.766;2023-07-02T01:44:44;18.90;44.40
59975;DHT22;62136;-35.664;-63.766;2023-07-02T01:47:11;18.90;44.40
59975;DHT22;62136;-35.664;-63.766;2023-07-02T01:49:38;18.80;44.40
59975;DHT22;62136;-35.664;-63.766;2023-07-02T01:52:05;18.90;44.40
59975;DHT22;62136;-35.664;-63.766;2023-07-02T01:54:34;18.80;44.50
59975;DHT22;62136;-35.664;-63.766;2023-07-02T01:57:02;18.80;44.40
59975;DHT22;62136;-35.664;-63.766;2023-07-02T01:59:29;18.80;44.50
59975;DHT22;62136;-35.664;-63.766;2023-07-02T02:01:56;18.80;44.50
59975;DHT22;62136;-35.664;-63.766;2023-07-02T02:04:23;18.80;44.50
59975;DHT22;62136;-35.664;-63.766;2023-07-02T02:06:50;18.80;44.50
59975;DHT22;62136;-35.664;-63.766;2023-07-02T02:09:18;18.80;44.50
59975;DHT22;62136;-35.664;-63.766;2023-07-02T02:11:48;18.80;44.60
59975;DHT22;62136;-35.664;-63.766;2023-07-02T02:14:15;18.70;44.40
59975;DHT22;62136;-35.664;-63.766;2023-07-02T02:16:43;18.70;44.50
59975;DHT22;62136;-35.664;-63.766;2023-07-02T02:19:14;18.70;44.60
59975;DHT22;62136;-35.664;-63.766;2023-07-02T02:21:42;18.70;44.60
59975;DHT22;62136;-35.664;-63.766;2023-07-02T02:24:09;18.70;44.70
59975;DHT22;62136;-35.664;-63.766;2023-07-02T02:26:36;18.70;44.70
59975;DHT22;62136;-35.664;-63.766;2023-07-02T02:29:03;18.70;44.70
59975;DHT22;62136;-35.664;-63.766;2023-07-02T02:31:30;18.70;44.70
59975;DHT22;62136;-35.664;-63.766;2023-07-02T02:33:57;18.70;44.70
59975;DHT22;62136;-35.664;-63.766;2023-07-02T02:36:24;18.70;44.80
59975;DHT22;62136;-35.664;-63.766;2023-07-02T02:38:52;18.70;44.80
59975;DHT22;62136;-35.664;-63.766;2023-07-02T02:41:19;18.70;44.90
59975;DHT22;62136;-35.664;-63.766;2023-07-02T02:43:46;18.70;44.90
59975;DHT22;62136;-35.664;-63.766;2023-07-02T02:46:18;18.70;44.90
59975;DHT22;62136;-35.664;-63.766;2023-07-02T02:48:46;18.60;44.90
59975;DHT22;62136;-35.664;-63.766;2023-07-02T02:51:13;18.60;44.90
59975;DHT22;62136;-35.664;-63.766;2023-07-02T02:53:40;18.60;44.90
59975;DHT22;62136;-35.664;-63.766;2023-07-02T02:56:07;18.60;45.00
59975;DHT22;62136;-35.664;-63.766;2023-07-02T02:58:34;18.60;45.00
59975;DHT22;62136;-35.664;-63.766;2023-07-02T03:01:01;18.60;45.00
59975;DHT22;62136;-35.664;-63.766;2023-07-02T03:03:28;18.60;45.00
59975;DHT22;62136;-35.664;-63.766;2023-07-02T03:05:55;18.60;45.40
59975;DHT22;62136;-35.664;-63.766;2023-07-02T03:08:22;18.60;45.10
59975;DHT22;62136;-35.664;-63.766;2023-07-02T03:10:49;18.60;45.20
59975;DHT22;62136;-35.664;-63.766;2023-07-02T03:13:16;18.60;45.20
59975;DHT22;62136;-35.664;-63.766;2023-07-02T03:15:43;18.60;45.30
59975;DHT22;62136;-35.664;-63.766;2023-07-02T03:18:10;18.60;45.30
59975;DHT22;62136;-35.664;-63.766;2023-07-02T03:20:37;18.50;45.30
59975;DHT22;62136;-35.664;-63.766;2023-07-02T03:23:04;18.60;45.40
59975;DHT22;62136;-35.664;-63.766;2023-07-02T03:25:31;18.50;45.30
59975;DHT22;62136;-35.664;-63.766;2023-07-02T03:30:27;18.50;45.50
59975;DHT22;62136;-35.664;-63.766;2023-07-02T03:32:55;18.50;45.40
59975;DHT22;62136;-35.664;-63.766;2023-07-02T03:35:22;18.60;45.60
59975;DHT22;62136;-35.664;-63.766;2023-07-02T03:37:49;18.50;45.60
59975;DHT22;62136;-35.664;-63.766;2023-07-02T03:40:16;18.60;45.70
59975;DHT22;62136;-35.664;-63.766;2023-07-02T03:42:44;18.50;45.70
59975;DHT22;62136;-35.664;-63.766;2023-07-02T03:45:11;18.50;45.70
59975;DHT22;62136;-35.664;-63.766;2023-07-02T03:47:38;18.50;45.80
59975;DHT22;62136;-35.664;-63.766;2023-07-02T03:50:05;18.50;45.80
59975;DHT22;62136;-35.664;-63.766;2023-07-02T03:52:32;18.50;45.90
59975;DHT22;62136;-35.664;-63.766;2023-07-02T03:54:59;18.50;45.90
59975;DHT22;62136;-35.664;-63.766;2023-07-02T03:57:26;18.50;46.00
59975;DHT22;62136;-35.664;-63.766;2023-07-02T03:59:54;18.50;46.00
59975;DHT22;62136;-35.664;-63.766;2023-07-02T04:02:21;18.50;46.10
59975;DHT22;62136;-35.664;-63.766;2023-07-02T04:04:48;18.50;46.20
59975;DHT22;62136;-35.664;-63.766;2023-07-02T04:07:15;18.50;46.20
59975;DHT22;62136;-35.664;-63.766;2023-07-02T04:09:42;18.50;46.20
59975;DHT22;62136;-35.664;-63.766;2023-07-02T04:12:09;18.50;46.30
59975;DHT22;62136;-35.664;-63.766;2023-07-02T04:14:36;18.50;46.40
59975;DHT22;62136;-35.664;-63.766;2023-07-02T04:17:03;18.50;46.50
59975;DHT22;62136;-35.664;-63.766;2023-07-02T04:19:30;18.50;46.50
59975;DHT22;62136;-35.664;-63.766;2023-07-02T04:21:57;18.50;46.50
59975;DHT22;62136;-35.664;-63.766;2023-07-02T04:24:27;18.50;46.60
59975;DHT22;62136;-35.664;-63.766;2023-07-02T04:26:54;18.40;46.60
59975;DHT22;62136;-35.664;-63.766;2023-07-02T04:29:21;18.40;46.60
59975;DHT22;62136;-35.664;-63.766;2023-07-02T04:31:48;18.40;46.70
59975;DHT22;62136;-35.664;-63.766;2023-07-02T04:34:15;18.40;46.70
59975;DHT22;62136;-35.664;-63.766;2023-07-02T04:36:43;18.40;46.80
59975;DHT22;62136;-35.664;-63.766;2023-07-02T04:39:10;18.40;46.70
59975;DHT22;62136;-35.664;-63.766;2023-07-02T04:41:37;18.50;47.00
59975;DHT22;62136;-35.664;-63.766;2023-07-02T04:44:05;18.40;46.90
59975;DHT22;62136;-35.664;-63.766;2023-07-02T04:46:32;18.40;47.00
59975;DHT22;62136;-35.664;-63.766;2023-07-02T04:48:59;18.40;47.10
59975;DHT22;62136;-35.664;-63.766;2023-07-02T04:51:26;18.40;47.20
59975;DHT22;62136;-35.664;-63.766;2023-07-02T04:53:53;18.40;47.30
59975;DHT22;62136;-35.664;-63.766;2023-07-02T04:56:20;18.40;47.30
59975;DHT22;62136;-35.664;-63.766;2023-07-02T04:58:47;18.40;47.30
59975;DHT22;62136;-35.664;-63.766;2023-07-02T05:01:17;18.40;47.30
59975;DHT22;62136;-35.664;-63.766;2023-07-02T05:03:44;18.40;47.50
59975;DHT22;62136;-35.664;-63.766;2023-07-02T05:06:11;18.40;47.50
59975;DHT22;62136;-35.664;-63.766;2023-07-02T05:08:38;18.40;47.50
59975;DHT22;62136;-35.664;-63.766;2023-07-02T05:11:05;18.40;47.60
59975;DHT22;62136;-35.664;-63.766;2023-07-02T05:13:32;18.40;47.70
59975;DHT22;62136;-35.664;-63.766;2023-07-02T05:15:59;18.40;47.90
59975;DHT22;62136;-35.664;-63.766;2023-07-02T05:18:26;18.40;47.90
59975;DHT22;62136;-35.664;-63.766;2023-07-02T05:20:53;18.40;47.90
59975;DHT22;62136;-35.664;-63.766;2023-07-02T05:23:20;18.40;47.90
59975;DHT22;62136;-35.664;-63.766;2023-07-02T05:25:47;18.40;48.50
59975;DHT22;62136;-35.664;-63.766;2023-07-02T05:28:14;18.40;48.00
59975;DHT22;62136;-35.664;-63.766;2023-07-02T05:30:41;18.40;48.00
59975;DHT22;62136;-35.664;-63.766;2023-07-02T05:33:08;18.40;48.10
59975;DHT22;62136;-35.664;-63.766;2023-07-02T05:35:35;18.30;48.10
59975;DHT22;62136;-35.664;-63.766;2023-07-02T05:38:02;18.30;48.20
59975;DHT22;62136;-35.664;-63.766;2023-07-02T05:40:29;18.30;48.30
59975;DHT22;62136;-35.664;-63.766;2023-07-02T05:42:57;18.40;48.30
59975;DHT22;62136;-35.664;-63.766;2023-07-02T05:45:24;18.40;48.30
59975;DHT22;62136;-35.664;-63.766;2023-07-02T05:47:54;18.40;48.40
59975;DHT22;62136;-35.664;-63.766;2023-07-02T05:50:21;18.40;48.50
59975;DHT22;62136;-35.664;-63.766;2023-07-02T05:52:48;18.40;48.50
59975;DHT22;62136;-35.664;-63.766;2023-07-02T05:55:15;18.30;48.50
59975;DHT22;62136;-35.664;-63.766;2023-07-02T05:57:42;18.40;48.60
59975;DHT22;62136;-35.664;-63.766;2023-07-02T06:00:12;18.40;48.70
59975;DHT22;62136;-35.664;-63.766;2023-07-02T06:02:39;18.30;48.70
59975;DHT22;62136;-35.664;-63.766;2023-07-02T06:05:07;18.30;48.70
59975;DHT22;62136;-35.664;-63.766;2023-07-02T06:07:34;18.40;48.80
59975;DHT22;62136;-35.664;-63.766;2023-07-02T06:10:02;18.30;48.40
59975;DHT22;62136;-35.664;-63.766;2023-07-02T06:12:29;18.30;48.80
59975;DHT22;62136;-35.664;-63.766;2023-07-02T06:14:56;18.30;48.80
59975;DHT22;62136;-35.664;-63.766;2023-07-02T06:17:29;18.30;48.80
59975;DHT22;62136;-35.664;-63.766;2023-07-02T06:19:57;18.30;48.90
59975;DHT22;62136;-35.664;-63.766;2023-07-02T06:22:24;18.30;48.60
59975;DHT22;62136;-35.664;-63.766;2023-07-02T06:24:51;18.30;48.90
59975;DHT22;62136;-35.664;-63.766;2023-07-02T06:27:18;18.30;49.00
59975;DHT22;62136;-35.664;-63.766;2023-07-02T06:29:48;18.30;49.10
59975;DHT22;62136;-35.664;-63.766;2023-07-02T06:32:16;18.30;49.10
59975;DHT22;62136;-35.664;-63.766;2023-07-02T06:34:44;18.30;49.20
59975;DHT22;62136;-35.664;-63.766;2023-07-02T06:37:12;18.30;49.30
59975;DHT22;62136;-35.664;-63.766;2023-07-02T06:39:39;18.20;49.20
59975;DHT22;62136;-35.664;-63.766;2023-07-02T06:42:06;18.30;49.30
59975;DHT22;62136;-35.664;-63.766;2023-07-02T06:44:33;18.20;49.30
59975;DHT22;62136;-35.664;-63.766;2023-07-02T06:47:00;18.30;49.30
59975;DHT22;62136;-35.664;-63.766;2023-07-02T06:49:27;18.20;49.20
59975;DHT22;62136;-35.664;-63.766;2023-07-02T06:51:57;18.20;49.30
59975;DHT22;62136;-35.664;-63.766;2023-07-02T06:54:26;18.20;49.40
59975;DHT22;62136;-35.664;-63.766;2023-07-02T06:56:53;18.20;49.40
59975;DHT22;62136;-35.664;-63.766;2023-07-02T07:01:52;18.30;50.10
59975;DHT22;62136;-35.664;-63.766;2023-07-02T07:04:19;18.20;49.50
59975;DHT22;62136;-35.664;-63.766;2023-07-02T07:06:46;18.20;49.70
59975;DHT22;62136;-35.664;-63.766;2023-07-02T07:09:13;18.20;49.70
59975;DHT22;62136;-35.664;-63.766;2023-07-02T07:11:40;18.20;49.60
59975;DHT22;62136;-35.664;-63.766;2023-07-02T07:14:07;18.20;49.60
59975;DHT22;62136;-35.664;-63.766;2023-07-02T07:16:34;18.20;49.70
59975;DHT22;62136;-35.664;-63.766;2023-07-02T07:19:02;18.30;49.50
59975;DHT22;62136;-35.664;-63.766;2023-07-02T07:21:29;18.20;49.60
59975;DHT22;62136;-35.664;-63.766;2023-07-02T07:23:56;18.20;49.70
59975;DHT22;62136;-35.664;-63.766;2023-07-02T07:26:23;18.30;49.40
59975;DHT22;62136;-35.664;-63.766;2023-07-02T07:28:51;18.20;49.70
59975;DHT22;62136;-35.664;-63.766;2023-07-02T07:31:21;18.30;49.70
59975;DHT22;62136;-35.664;-63.766;2023-07-02T07:33:48;18.30;49.90
59975;DHT22;62136;-35.664;-63.766;2023-07-02T07:36:15;18.20;49.70
59975;DHT22;62136;-35.664;-63.766;2023-07-02T07:38:45;18.20;49.90
59975;DHT22;62136;-35.664;-63.766;2023-07-02T07:41:12;18.20;50.00
59975;DHT22;62136;-35.664;-63.766;2023-07-02T07:43:39;18.20;50.00
59975;DHT22;62136;-35.664;-63.766;2023-07-02T07:46:06;18.20;50.10
59975;DHT22;62136;-35.664;-63.766;2023-07-02T07:48:33;18.20;50.10
59975;DHT22;62136;-35.664;-63.766;2023-07-02T07:51:00;18.20;50.20
59975;DHT22;62136;-35.664;-63.766;2023-07-02T07:53:28;18.20;50.00
59975;DHT22;62136;-35.664;-63.766;2023-07-02T07:55:57;18.20;50.10
59975;DHT22;62136;-35.664;-63.766;2023-07-02T07:58:24;18.20;50.20
59975;DHT22;62136;-35.664;-63.766;2023-07-02T08:01:00;18.20;50.20
59975;DHT22;62136;-35.664;-63.766;2023-07-02T08:03:27;18.10;50.30
59975;DHT22;62136;-35.664;-63.766;2023-07-02T08:05:54;18.10;50.30
59975;DHT22;62136;-35.664;-63.766;2023-07-02T08:08:21;18.10;50.30
59975;DHT22;62136;-35.664;-63.766;2023-07-02T08:10:48;18.10;50.40
59975;DHT22;62136;-35.664;-63.766;2023-07-02T08:13:16;18.20;50.30
59975;DHT22;62136;-35.664;-63.766;2023-07-02T08:15:44;18.20;50.30
59975;DHT22;62136;-35.664;-63.766;2023-07-02T08:18:11;18.20;50.40
59975;DHT22;62136;-35.664;-63.766;2023-07-02T08:20:39;18.20;50.40
59975;DHT22;62136;-35.664;-63.766;2023-07-02T08:23:06;18.20;50.30
59975;DHT22;62136;-35.664;-63.766;2023-07-02T08:25:33;18.20;50.40
59975;DHT22;62136;-35.664;-63.766;2023-07-02T08:28:00;18.20;50.20
59975;DHT22;62136;-35.664;-63.766;2023-07-02T08:30:27;18.20;50.40
59975;DHT22;62136;-35.664;-63.766;2023-07-02T08:32:54;18.10;50.50
59975;DHT22;62136;-35.664;-63.766;2023-07-02T08:35:22;18.10;50.60
59975;DHT22;62136;-35.664;-63.766;2023-07-02T08:37:49;18.20;50.60
59975;DHT22;62136;-35.664;-63.766;2023-07-02T08:40:20;18.10;50.50
59975;DHT22;62136;-35.664;-63.766;2023-07-02T08:42:47;18.20;50.70
59975;DHT22;62136;-35.664;-63.766;2023-07-02T08:45:17;18.10;50.80
59975;DHT22;62136;-35.664;-63.766;2023-07-02T08:47:45;18.10;50.80
59975;DHT22;62136;-35.664;-63.766;2023-07-02T08:50:13;18.10;50.90
59975;DHT22;62136;-35.664;-63.766;2023-07-02T08:52:40;18.10;50.80
59975;DHT22;62136;-35.664;-63.766;2023-07-02T08:55:09;18.10;50.60
59975;DHT22;62136;-35.664;-63.766;2023-07-02T08:57:36;18.10;51.00
59975;DHT22;62136;-35.664;-63.766;2023-07-02T09:02:35;18.10;51.00
59975;DHT22;62136;-35.664;-63.766;2023-07-02T09:05:03;18.10;50.60
59975;DHT22;62136;-35.664;-63.766;2023-07-02T09:07:30;18.10;51.00
59975;DHT22;62136;-35.664;-63.766;2023-07-02T09:09:57;18.10;51.10
59975;DHT22;62136;-35.664;-63.766;2023-07-02T09:12:28;18.10;50.90
59975;DHT22;62136;-35.664;-63.766;2023-07-02T09:14:59;18.10;51.00
59975;DHT22;62136;-35.664;-63.766;2023-07-02T09:17:32;18.10;50.90
59975;DHT22;62136;-35.664;-63.766;2023-07-02T09:20:02;18.10;50.90
59975;DHT22;62136;-35.664;-63.766;2023-07-02T09:22:31;18.20;50.90
59975;DHT22;62136;-35.664;-63.766;2023-07-02T09:24:59;18.10;51.10
59975;DHT22;62136;-35.664;-63.766;2023-07-02T09:27:40;18.10;51.10
59975;DHT22;62136;-35.664;-63.766;2023-07-02T09:32:42;18.10;51.20
59975;DHT22;62136;-35.664;-63.766;2023-07-02T09:35:11;18.10;51.20
59975;DHT22;62136;-35.664;-63.766;2023-07-02T09:37:41;18.10;51.20
59975;DHT22;62136;-35.664;-63.766;2023-07-02T09:40:09;18.10;51.40
59975;DHT22;62136;-35.664;-63.766;2023-07-02T09:42:38;18.10;50.90
59975;DHT22;62136;-35.664;-63.766;2023-07-02T09:45:08;18.10;51.30
59975;DHT22;62136;-35.664;-63.766;2023-07-02T09:47:43;18.10;51.30
59975;DHT22;62136;-35.664;-63.766;2023-07-02T09:50:15;18.10;51.40
59975;DHT22;62136;-35.664;-63.766;2023-07-02T09:52:45;18.10;51.10
59975;DHT22;62136;-35.664;-63.766;2023-07-02T09:55:14;18.10;51.60
59975;DHT22;62136;-35.664;-63.766;2023-07-02T09:57:43;18.10;51.70
59975;DHT22;62136;-35.664;-63.766;2023-07-02T10:00:12;18.10;51.60
59975;DHT22;62136;-35.664;-63.766;2023-07-02T10:02:39;18.10;51.30
59975;DHT22;62136;-35.664;-63.766;2023-07-02T10:05:07;18.10;51.40
59975;DHT22;62136;-35.664;-63.766;2023-07-02T10:07:34;18.10;51.40
59975;DHT22;62136;-35.664;-63.766;2023-07-02T10:10:01;18.10;51.50
59975;DHT22;62136;-35.664;-63.766;2023-07-02T10:12:29;18.10;51.20
59975;DHT22;62136;-35.664;-63.766;2023-07-02T10:14:58;18.10;51.20
59975;DHT22;62136;-35.664;-63.766;2023-07-02T10:17:29;18.10;51.50
59975;DHT22;62136;-35.664;-63.766;2023-07-02T10:20:04;18.10;51.50
59975;DHT22;62136;-35.664;-63.766;2023-07-02T10:22:47;18.10;51.40
59975;DHT22;62136;-35.664;-63.766;2023-07-02T10:25:35;18.10;51.50
59975;DHT22;62136;-35.664;-63.766;2023-07-02T10:28:19;18.10;51.60
59975;DHT22;62136;-35.664;-63.766;2023-07-02T10:30:48;18.10;51.60
59975;DHT22;62136;-35.664;-63.766;2023-07-02T10:33:17;18.10;51.40
59975;DHT22;62136;-35.664;-63.766;2023-07-02T10:35:46;18.10;51.70
59975;DHT22;62136;-35.664;-63.766;2023-07-02T10:38:23;18.10;51.50
59975;DHT22;62136;-35.664;-63.766;2023-07-02T10:41:00;18.10;51.20
59975;DHT22;62136;-35.664;-63.766;2023-07-02T10:43:28;18.10;51.80
59975;DHT22;62136;-35.664;-63.766;2023-07-02T10:45:59;18.10;51.70
59975;DHT22;62136;-35.664;-63.766;2023-07-02T10:48:27;18.10;51.80
59975;DHT22;62136;-35.664;-63.766;2023-07-02T10:50:54;18.10;51.70
59975;DHT22;62136;-35.664;-63.766;2023-07-02T10:53:21;18.10;51.70
59975;DHT22;62136;-35.664;-63.766;2023-07-02T10:55:55;18.10;51.90
59975;DHT22;62136;-35.664;-63.766;2023-07-02T10:58:23;18.10;52.00
59975;DHT22;62136;-35.664;-63.766;2023-07-02T11:03:20;18.10;52.20
59975;DHT22;62136;-35.664;-63.766;2023-07-02T11:05:48;18.10;51.90
59975;DHT22;62136;-35.664;-63.766;2023-07-02T11:08:16;18.10;52.00
59975;DHT22;62136;-35.664;-63.766;2023-07-02T11:10:44;18.00;51.40
59975;DHT22;62136;-35.664;-63.766;2023-07-02T11:13:20;18.10;51.80
59975;DHT22;62136;-35.664;-63.766;2023-07-02T11:15:48;18.10;52.00
59975;DHT22;62136;-35.664;-63.766;2023-07-02T11:18:16;18.10;52.20
59975;DHT22;62136;-35.664;-63.766;2023-07-02T11:20:45;18.10;51.80
59975;DHT22;62136;-35.664;-63.766;2023-07-02T11:28:24;18.10;52.00
59975;DHT22;62136;-35.664;-63.766;2023-07-02T11:30:51;18.00;52.40
59975;DHT22;62136;-35.664;-63.766;2023-07-02T11:33:20;18.00;52.00
59975;DHT22;62136;-35.664;-63.766;2023-07-02T11:35:48;18.10;52.20
59975;DHT22;62136;-35.664;-63.766;2023-07-02T11:38:15;18.00;52.30
59975;DHT22;62136;-35.664;-63.766;2023-07-02T11:40:42;18.10;52.40
59975;DHT22;62136;-35.664;-63.766;2023-07-02T11:43:09;18.10;52.30
59975;DHT22;62136;-35.664;-63.766;2023-07-02T11:45:36;18.10;52.00
59975;DHT22;62136;-35.664;-63.766;2023-07-02T11:48:03;18.10;52.20
59975;DHT22;62136;-35.664;-63.766;2023-07-02T11:50:30;18.00;52.40
59975;DHT22;62136;-35.664;-63.766;2023-07-02T11:52:57;18.10;52.30
59975;DHT22;62136;-35.664;-63.766;2023-07-02T11:55:24;18.10;52.40
59975;DHT22;62136;-35.664;-63.766;2023-07-02T11:57:52;18.10;52.20
59975;DHT22;62136;-35.664;-63.766;2023-07-02T12:00:19;18.10;52.60
59975;DHT22;62136;-35.664;-63.766;2023-07-02T12:02:46;18.10;52.40
59975;DHT22;62136;-35.664;-63.766;2023-07-02T12:05:13;18.10;52.40
59975;DHT22;62136;-35.664;-63.766;2023-07-02T12:07:40;18.10;52.50
59975;DHT22;62136;-35.664;-63.766;2023-07-02T12:10:08;18.10;52.40
59975;DHT22;62136;-35.664;-63.766;2023-07-02T12:12:35;18.10;52.30
59975;DHT22;62136;-35.664;-63.766;2023-07-02T12:15:02;18.10;52.40
59975;DHT22;62136;-35.664;-63.766;2023-07-02T12:17:30;18.10;52.40
59975;DHT22;62136;-35.664;-63.766;2023-07-02T12:19:57;18.10;52.40
59975;DHT22;62136;-35.664;-63.766;2023-07-02T12:22:24;18.10;52.50
59975;DHT22;62136;-35.664;-63.766;2023-07-02T12:24:52;18.10;52.20
59975;DHT22;62136;-35.664;-63.766;2023-07-02T12:27:22;18.10;52.50
59975;DHT22;62136;-35.664;-63.766;2023-07-02T12:29:49;18.10;52.50
59975;DHT22;62136;-35.664;-63.766;2023-07-02T12:32:16;18.10;52.70
59975;DHT22;62136;-35.664;-63.766;2023-07-02T12:34:43;18.10;52.50
59975;DHT22;62136;-35.664;-63.766;2023-07-02T12:37:10;18.10;52.60
59975;DHT22;62136;-35.664;-63.766;2023-07-02T12:39:37;18.10;52.50
59975;DHT22;62136;-35.664;-63.766;2023-07-02T12:42:04;18.10;52.70
59975;DHT22;62136;-35.664;-63.766;2023-07-02T12:44:31;18.10;52.80
59975;DHT22;62136;-35.664;-63.766;2023-07-02T12:46:58;18.10;52.70
59975;DHT22;62136;-35.664;-63.766;2023-07-02T12:49:25;18.10;52.70
59975;DHT22;62136;-35.664;-63.766;2023-07-02T12:51:52;18.10;52.60
59975;DHT22;62136;-35.664;-63.766;2023-07-02T12:54:19;18.10;52.70
59975;DHT22;62136;-35.664;-63.766;2023-07-02T12:56:47;18.10;52.70
59975;DHT22;62136;-35.664;-63.766;2023-07-02T12:59:15;18.10;52.80
59975;DHT22;62136;-35.664;-63.766;2023-07-02T13:01:42;18.10;53.30
59975;DHT22;62136;-35.664;-63.766;2023-07-02T13:04:09;18.10;52.80
59975;DHT22;62136;-35.664;-63.766;2023-07-02T13:06:36;18.10;52.80
59975;DHT22;62136;-35.664;-63.766;2023-07-02T13:09:07;18.10;52.80
59975;DHT22;62136;-35.664;-63.766;2023-07-02T13:11:35;18.10;52.90
59975;DHT22;62136;-35.664;-63.766;2023-07-02T13:14:02;18.10;52.90
59975;DHT22;62136;-35.664;-63.766;2023-07-02T13:16:29;18.10;52.90
59975;DHT22;62136;-35.664;-63.766;2023-07-02T13:18:56;18.10;52.90
59975;DHT22;62136;-35.664;-63.766;2023-07-02T13:21:24;18.10;52.90
59975;DHT22;62136;-35.664;-63.766;2023-07-02T13:23:51;18.10;52.90
59975;DHT22;62136;-35.664;-63.766;2023-07-02T13:26:18;18.10;52.90
59975;DHT22;62136;-35.664;-63.766;2023-07-02T13:28:46;18.10;52.90
59975;DHT22;62136;-35.664;-63.766;2023-07-02T13:31:15;18.10;53.00
59975;DHT22;62136;-35.664;-63.766;2023-07-02T13:33:42;18.20;53.00
59975;DHT22;62136;-35.664;-63.766;2023-07-02T13:36:10;18.20;53.00
59975;DHT22;62136;-35.664;-63.766;2023-07-02T13:38:37;18.10;52.90
59975;DHT22;62136;-35.664;-63.766;2023-07-02T13:41:04;18.20;53.10
59975;DHT22;62136;-35.664;-63.766;2023-07-02T13:43:31;18.20;53.10
59975;DHT22;62136;-35.664;-63.766;2023-07-02T13:45:58;18.20;53.10
59975;DHT22;62136;-35.664;-63.766;2023-07-02T13:48:25;18.20;53.20
59975;DHT22;62136;-35.664;-63.766;2023-07-02T13:50:52;18.20;53.20
59975;DHT22;62136;-35.664;-63.766;2023-07-02T13:53:20;18.10;53.20
59975;DHT22;62136;-35.664;-63.766;2023-07-02T13:55:47;18.20;53.20
59975;DHT22;62136;-35.664;-63.766;2023-07-02T13:58:14;18.10;53.30
59975;DHT22;62136;-35.664;-63.766;2023-07-02T14:00:41;18.20;53.30
59975;DHT22;62136;-35.664;-63.766;2023-07-02T14:03:08;18.20;53.30
59975;DHT22;62136;-35.664;-63.766;2023-07-02T14:05:35;18.20;53.30
59975;DHT22;62136;-35.664;-63.766;2023-07-02T14:08:02;18.20;53.40
59975;DHT22;62136;-35.664;-63.766;2023-07-02T14:10:29;18.20;53.30
59975;DHT22;62136;-35.664;-63.766;2023-07-02T14:12:56;18.20;53.40
59975;DHT22;62136;-35.664;-63.766;2023-07-02T14:15:25;18.20;53.40
59975;DHT22;62136;-35.664;-63.766;2023-07-02T14:17:54;18.20;53.90
59975;DHT22;62136;-35.664;-63.766;2023-07-02T14:20:21;18.20;53.40
59975;DHT22;62136;-35.664;-63.766;2023-07-02T14:22:48;18.20;53.50
59975;DHT22;62136;-35.664;-63.766;2023-07-02T14:25:15;18.20;53.40
59975;DHT22;62136;-35.664;-63.766;2023-07-02T14:27:42;18.30;53.50
59975;DHT22;62136;-35.664;-63.766;2023-07-02T14:30:10;18.30;53.40
59975;DHT22;62136;-35.664;-63.766;2023-07-02T14:32:37;18.30;53.50
59975;DHT22;62136;-35.664;-63.766;2023-07-02T14:35:05;18.30;53.40
59975;DHT22;62136;-35.664;-63.766;2023-07-02T14:37:32;18.30;53.50
59975;DHT22;62136;-35.664;-63.766;2023-07-02T14:40:00;18.30;53.40
59975;DHT22;62136;-35.664;-63.766;2023-07-02T14:42:27;18.30;53.50
59975;DHT22;62136;-35.664;-63.766;2023-07-02T14:44:54;18.30;53.50
59975;DHT22;62136;-35.664;-63.766;2023-07-02T14:47:21;18.30;53.40
59975;DHT22;62136;-35.664;-63.766;2023-07-02T14:49:48;18.40;53.50
59975;DHT22;62136;-35.664;-63.766;2023-07-02T14:52:15;18.40;53.50
59975;DHT22;62136;-35.664;-63.766;2023-07-02T14:54:44;18.40;53.50
59975;DHT22;62136;-35.664;-63.766;2023-07-02T14:57:11;18.40;53.60
59975;DHT22;62136;-35.664;-63.766;2023-07-02T14:59:38;18.40;53.50
59975;DHT22;62136;-35.664;-63.766;2023-07-02T15:02:06;18.40;53.50
59975;DHT22;62136;-35.664;-63.766;2023-07-02T15:04:33;18.40;53.50
59975;DHT22;62136;-35.664;-63.766;2023-07-02T15:07:00;18.40;53.60
59975;DHT22;62136;-35.664;-63.766;2023-07-02T15:09:27;18.40;53.60
59975;DHT22;62136;-35.664;-63.766;2023-07-02T15:11:55;18.40;53.50